sensor_id;sensor_type;location;lat;lon;timestamp;pressure;altitude;pressure_sealevel;temperature;humidity
49723;BME280;43484;43.608;1.458;2022-09-11T00:01:26;99945.91;;;21.02;100.00
49723;BME280;43484;43.608;1.458;2022-09-11T00:03:54;99952.03;;;20.98;100.00
49723;BME280;43484;43.608;1.458;2022-09-11T00:06:23;99951.16;;;20.95;100.00
49723;BME280;43484;43.608;1.458;2022-09-11T00:09:01;99942.53;;;20.88;100.00
49723;BME280;43484;43.608;1.458;2022-09-11T00:11:31;99948.69;;;20.84;100.00
49723;BME280;43484;43.608;1.458;2022-09-11T00:13:58;99958.25;;;20.81;100.00
49723;BME280;43484;43.608;1.458;2022-09-11T00:16:30;99947.88;;;20.78;100.00
49723;BME280;43484;43.608;1.458;2022-09-11T00:19:04;99956.56;;;20.77;100.00
49723;BME280;43484;43.608;1.458;2022-09-11T00:21:32;99951.34;;;20.78;100.00
49723;BME280;43484;43.608;1.458;2022-09-11T00:23:58;99943.56;;;20.75;100.00
49723;BME280;43484;43.608;1.458;2022-09-11T00:26:26;99946.19;;;20.72;100.00
49723;BME280;43484;43.608;1.458;2022-09-11T00:28:53;99951.34;;;20.78;100.00
49723;BME280;43484;43.608;1.458;2022-09-11T00:31:25;99946.97;;;20.82;100.00
49723;BME280;43484;43.608;1.458;2022-09-11T00:33:54;99948.72;;;20.81;100.00
49723;BME280;43484;43.608;1.458;2022-09-11T00:36:25;99945.25;;;20.79;100.00
49723;BME280;43484;43.608;1.458;2022-09-11T00:38:53;99953.09;;;20.75;100.00
49723;BME280;43484;43.608;1.458;2022-09-11T00:41:31;99951.41;;;20.71;100.00
49723;BME280;43484;43.608;1.458;2022-09-11T00:46:44;99943.69;;;20.62;100.00
49723;BME280;43484;43.608;1.458;2022-09-11T00:49:32;99943.69;;;20.62;100.00
49723;BME280;43484;43.608;1.458;2022-09-11T00:52:36;99944.63;;;20.53;100.00
49723;BME280;43484;43.608;1.458;2022-09-11T00:55:01;99938.56;;;20.54;100.00
49723;BME280;43484;43.608;1.458;2022-09-11T00:57:34;99935.09;;;20.54;100.00
49723;BME280;43484;43.608;1.458;2022-09-11T01:00:04;99928.16;;;20.51;100.00
49723;BME280;43484;43.608;1.458;2022-09-11T01:02:34;99929.94;;;20.49;100.00
49723;BME280;43484;43.608;1.458;2022-09-11T01:05:03;99935.16;;;20.45;100.00
49723;BME280;43484;43.608;1.458;2022-09-11T01:07:30;99922.16;;;20.43;100.00
49723;BME280;43484;43.608;1.458;2022-09-11T01:09:58;99923.88;;;20.47;100.00
49723;BME280;43484;43.608;1.458;2022-09-11T01:29:43;99886.63;;;20.42;100.00
49723;BME280;43484;43.608;1.458;2022-09-11T01:32:19;99890.09;;;20.43;100.00
49723;BME280;43484;43.608;1.458;2022-09-11T01:34:51;99890.09;;;20.43;100.00
49723;BME280;43484;43.608;1.458;2022-09-11T01:37:23;99889.31;;;20.32;100.00
49723;BME280;43484;43.608;1.458;2022-09-11T01:40:03;99891.91;;;20.32;100.00
49723;BME280;43484;43.608;1.458;2022-09-11T01:42:33;99896.25;;;20.31;100.00
49723;BME280;43484;43.608;1.458;2022-09-11T01:45:03;99894.59;;;20.21;100.00
49723;BME280;43484;43.608;1.458;2022-09-11T01:47:32;99894.59;;;20.24;100.00
49723;BME280;43484;43.608;1.458;2022-09-11T01:50:08;99899.84;;;20.18;100.00
49723;BME280;43484;43.608;1.458;2022-09-11T01:52:42;99894.66;;;20.12;100.00
49723;BME280;43484;43.608;1.458;2022-09-11T01:55:15;99887.75;;;20.08;100.00
49723;BME280;43484;43.608;1.458;2022-09-11T01:57:53;99887.84;;;19.99;100.00
49723;BME280;43484;43.608;1.458;2022-09-11T02:00:21;99895.66;;;19.98;100.00
49723;BME280;43484;43.608;1.458;2022-09-11T02:02:54;99900.00;;;19.91;100.00
49723;BME280;43484;43.608;1.458;2022-09-11T02:05:50;99896.56;;;19.92;100.00
49723;BME280;43484;43.608;1.458;2022-09-11T02:08:23;99891.38;;;19.86;100.00
49723;BME280;43484;43.608;1.458;2022-09-11T02:10:58;99887.97;;;19.82;100.00
49723;BME280;43484;43.608;1.458;2022-09-11T02:13:44;99885.38;;;19.78;100.00
49723;BME280;43484;43.608;1.458;2022-09-11T02:19:06;99881.91;;;19.74;100.00
49723;BME280;43484;43.608;1.458;2022-09-11T02:21:34;99880.25;;;19.66;100.00
49723;BME280;43484;43.608;1.458;2022-09-11T02:24:02;99886.31;;;19.65;100.00
49723;BME280;43484;43.608;1.458;2022-09-11T02:26:32;99891.50;;;19.69;100.00
49723;BME280;43484;43.608;1.458;2022-09-11T02:28:59;99884.59;;;19.67;100.00
49723;BME280;43484;43.608;1.458;2022-09-11T02:31:26;99891.50;;;19.68;100.00
49723;BME280;43484;43.608;1.458;2022-09-11T02:33:53;99891.53;;;19.65;100.00
49723;BME280;43484;43.608;1.458;2022-09-11T02:47:26;99879.53;;;19.43;100.00
49723;BME280;43484;43.608;1.458;2022-09-11T02:52:28;99880.41;;;19.40;100.00
49723;BME280;43484;43.608;1.458;2022-09-11T02:55:19;99886.41;;;19.50;100.00
49723;BME280;43484;43.608;1.458;2022-09-11T02:57:57;99881.16;;;19.56;100.00
49723;BME280;43484;43.608;1.458;2022-09-11T03:00:30;99876.91;;;19.50;100.00
49723;BME280;43484;43.608;1.458;2022-09-11T03:03:00;99879.50;;;19.52;100.00
49723;BME280;43484;43.608;1.458;2022-09-11T03:05:26;99876.91;;;19.49;100.00
49723;BME280;43484;43.608;1.458;2022-09-11T03:07:54;99870.03;;;19.42;100.00
49723;BME280;43484;43.608;1.458;2022-09-11T03:10:21;99870.06;;;19.28;100.00
49723;BME280;43484;43.608;1.458;2022-09-11T03:12:47;99864.88;;;19.30;100.00
49723;BME280;43484;43.608;1.458;2022-09-11T03:15:14;99868.34;;;19.27;100.00
49723;BME280;43484;43.608;1.458;2022-09-11T03:17:42;99871.81;;;19.25;100.00
49723;BME280;43484;43.608;1.458;2022-09-11T03:20:09;99864.00;;;19.26;100.00
49723;BME280;43484;43.608;1.458;2022-09-11T03:22:36;99864.00;;;19.25;100.00
49723;BME280;43484;43.608;1.458;2022-09-11T03:25:02;99858.81;;;19.25;100.00
49723;BME280;43484;43.608;1.458;2022-09-11T03:27:31;99854.50;;;19.19;100.00
49723;BME280;43484;43.608;1.458;2022-09-11T03:29:58;99851.06;;;19.14;100.00
49723;BME280;43484;43.608;1.458;2022-09-11T03:32:24;99850.22;;;19.15;100.00
49723;BME280;43484;43.608;1.458;2022-09-11T03:34:51;99847.63;;;19.15;100.00
49723;BME280;43484;43.608;1.458;2022-09-11T03:37:17;99850.19;;;19.18;100.00
49723;BME280;43484;43.608;1.458;2022-09-11T03:39:44;99857.97;;;19.20;100.00
49723;BME280;43484;43.608;1.458;2022-09-11T03:42:11;99851.91;;;19.19;100.00
49723;BME280;43484;43.608;1.458;2022-09-11T03:44:38;99851.91;;;19.24;100.00
49723;BME280;43484;43.608;1.458;2022-09-11T03:47:05;99851.03;;;19.29;100.00
49723;BME280;43484;43.608;1.458;2022-09-11T03:49:33;99844.94;;;19.29;100.00
49723;BME280;43484;43.608;1.458;2022-09-11T03:52:00;99850.16;;;19.23;100.00
49723;BME280;43484;43.608;1.458;2022-09-11T03:54:27;99846.69;;;19.25;100.00
49723;BME280;43484;43.608;1.458;2022-09-11T03:56:54;99850.22;;;19.15;100.00
49723;BME280;43484;43.608;1.458;2022-09-11T03:59:21;99848.50;;;19.08;100.00
49723;BME280;43484;43.608;1.458;2022-09-11T04:01:48;99843.31;;;19.07;100.00
49723;BME280;43484;43.608;1.458;2022-09-11T04:04:16;99847.63;;;19.11;100.00
49723;BME280;43484;43.608;1.458;2022-09-11T04:06:43;99844.19;;;19.04;100.00
49723;BME280;43484;43.608;1.458;2022-09-11T04:09:09;99848.53;;;18.98;100.00
49723;BME280;43484;43.608;1.458;2022-09-11T04:11:36;99848.59;;;18.89;100.00
49723;BME280;43484;43.608;1.458;2022-09-11T04:14:05;99841.66;;;18.86;100.00
49723;BME280;43484;43.608;1.458;2022-09-11T04:16:33;99833.88;;;18.86;100.00
49723;BME280;43484;43.608;1.458;2022-09-11T04:19:01;99833.03;;;18.87;100.00
49723;BME280;43484;43.608;1.458;2022-09-11T04:21:28;99828.72;;;18.80;100.00
49723;BME280;43484;43.608;1.458;2022-09-11T04:23:56;99827.91;;;18.73;100.00
49723;BME280;43484;43.608;1.458;2022-09-11T04:26:30;99833.06;;;18.78;100.00
49723;BME280;43484;43.608;1.458;2022-09-11T04:28:58;99832.19;;;18.82;100.00
49723;BME280;43484;43.608;1.458;2022-09-11T04:31:26;99831.31;;;18.82;100.00
49723;BME280;43484;43.608;1.458;2022-09-11T04:33:54;99833.91;;;18.75;100.00
49723;BME280;43484;43.608;1.458;2022-09-11T04:36:23;99827.84;;;18.80;100.00
49723;BME280;43484;43.608;1.458;2022-09-11T04:38:54;99835.66;;;18.70;100.00
49723;BME280;43484;43.608;1.458;2022-09-11T04:41:21;99840.88;;;18.67;100.00
49723;BME280;43484;43.608;1.458;2022-09-11T04:43:48;99838.25;;;18.69;100.00
49723;BME280;43484;43.608;1.458;2022-09-11T04:46:16;99832.22;;;18.62;100.00
49723;BME280;43484;43.608;1.458;2022-09-11T04:48:48;99833.97;;;18.65;100.00
49723;BME280;43484;43.608;1.458;2022-09-11T04:51:22;99840.91;;;18.58;100.00
49723;BME280;43484;43.608;1.458;2022-09-11T04:53:50;99844.38;;;18.56;100.00
49723;BME280;43484;43.608;1.458;2022-09-11T04:56:17;99834.03;;;18.48;100.00
49723;BME280;43484;43.608;1.458;2022-09-11T04:58:51;99839.19;;;18.50;100.00
49723;BME280;43484;43.608;1.458;2022-09-11T05:01:20;99839.22;;;18.39;100.00
49723;BME280;43484;43.608;1.458;2022-09-11T05:03:47;99832.28;;;18.44;100.00
49723;BME280;43484;43.608;1.458;2022-09-11T05:06:14;99834.03;;;18.32;100.00
49723;BME280;43484;43.608;1.458;2022-09-11T05:08:42;99840.06;;;18.32;100.00
49723;BME280;43484;43.608;1.458;2022-09-11T05:11:15;99848.69;;;18.37;100.00
49723;BME280;43484;43.608;1.458;2022-09-11T05:13:42;99840.09;;;18.41;100.00
49723;BME280;43484;43.608;1.458;2022-09-11T05:16:11;99836.59;;;18.35;100.00
49723;BME280;43484;43.608;1.458;2022-09-11T05:19:26;75179.19;;;-139.91;100.00
49723;BME280;43484;43.608;1.458;2022-09-11T05:21:54;99851.31;;;18.40;100.00
49723;BME280;43484;43.608;1.458;2022-09-11T05:24:20;99842.66;;;18.37;100.00
49723;BME280;43484;43.608;1.458;2022-09-11T05:26:47;99843.53;;;18.33;100.00
49723;BME280;43484;43.608;1.458;2022-09-11T05:29:14;99852.16;;;18.35;100.00
49723;BME280;43484;43.608;1.458;2022-09-11T05:31:41;99851.28;;;18.39;100.00
49723;BME280;43484;43.608;1.458;2022-09-11T05:34:08;99847.84;;;18.31;100.00
49723;BME280;43484;43.608;1.458;2022-09-11T05:36:35;99850.44;;;18.29;100.00
49723;BME280;43484;43.608;1.458;2022-09-11T05:39:03;99867.75;;;18.18;100.00
49723;BME280;43484;43.608;1.458;2022-09-11T05:41:30;99876.38;;;18.16;100.00
49723;BME280;43484;43.608;1.458;2022-09-11T05:43:58;99874.66;;;18.19;100.00
49723;BME280;43484;43.608;1.458;2022-09-11T05:46:24;99877.25;;;18.16;100.00
49723;BME280;43484;43.608;1.458;2022-09-11T05:48:51;99882.44;;;18.13;100.00
49723;BME280;43484;43.608;1.458;2022-09-11T05:51:19;99882.44;;;18.07;100.00
49723;BME280;43484;43.608;1.458;2022-09-11T05:53:50;99883.31;;;18.02;100.00
49723;BME280;43484;43.608;1.458;2022-09-11T05:56:19;99882.44;;;18.04;100.00
49723;BME280;43484;43.608;1.458;2022-09-11T05:58:47;99880.72;;;18.05;100.00
49723;BME280;43484;43.608;1.458;2022-09-11T06:01:16;56282.84;;;-139.91;100.00
49723;BME280;43484;43.608;1.458;2022-09-11T06:04:42;56282.84;;;-139.91;100.00
49723;BME280;43484;43.608;1.458;2022-09-11T06:08:08;56282.84;;;-139.91;100.00
49723;BME280;43484;43.608;1.458;2022-09-11T06:11:33;56282.84;;;-139.91;100.00
49723;BME280;43484;43.608;1.458;2022-09-11T06:14:58;56282.84;;;-139.91;100.00
49723;BME280;43484;43.608;1.458;2022-09-11T06:18:23;56282.84;;;-139.91;100.00
49723;BME280;43484;43.608;1.458;2022-09-11T06:22:07;56282.84;;;-139.91;100.00
49723;BME280;43484;43.608;1.458;2022-09-11T06:25:32;56282.84;;;-139.91;100.00
49723;BME280;43484;43.608;1.458;2022-09-11T06:28:57;56282.84;;;-139.91;100.00
49723;BME280;43484;43.608;1.458;2022-09-11T06:31:29;56282.84;;;-139.91;100.00
49723;BME280;43484;43.608;1.458;2022-09-11T06:33:56;56282.84;;;-139.91;100.00
49723;BME280;43484;43.608;1.458;2022-09-11T06:36:25;56282.84;;;-139.91;100.00
49723;BME280;43484;43.608;1.458;2022-09-11T06:38:53;99860.81;;;18.32;100.00
49723;BME280;43484;43.608;1.458;2022-09-11T06:41:20;99865.16;;;18.18;100.00
49723;BME280;43484;43.608;1.458;2022-09-11T06:44:19;99865.16;;;18.18;100.00
49723;BME280;43484;43.608;1.458;2022-09-11T06:46:46;99857.34;;;18.45;100.00
49723;BME280;43484;43.608;1.458;2022-09-11T06:49:13;99859.97;;;18.48;100.00
49723;BME280;43484;43.608;1.458;2022-09-11T06:51:39;99855.63;;;18.56;100.00
49723;BME280;43484;43.608;1.458;2022-09-11T06:54:06;99852.16;;;18.63;100.00
49723;BME280;43484;43.608;1.458;2022-09-11T06:56:33;99841.69;;;18.83;100.00
49723;BME280;43484;43.608;1.458;2022-09-11T06:59:00;99845.09;;;18.94;100.00
49723;BME280;43484;43.608;1.458;2022-09-11T07:01:26;99854.63;;;18.89;100.00
49723;BME280;43484;43.608;1.458;2022-09-11T07:03:54;99850.22;;;19.11;100.00
49723;BME280;43484;43.608;1.458;2022-09-11T07:06:26;99845.88;;;19.17;100.00
49723;BME280;43484;43.608;1.458;2022-09-11T07:08:56;99851.03;;;19.29;100.00
49723;BME280;43484;43.608;1.458;2022-09-11T07:11:30;99851.88;;;19.30;100.00
49723;BME280;43484;43.608;1.458;2022-09-11T07:14:00;99846.69;;;19.27;100.00
49723;BME280;43484;43.608;1.458;2022-09-11T07:16:31;99842.31;;;19.36;100.00
49723;BME280;43484;43.608;1.458;2022-09-11T07:18:58;99841.41;;;19.45;100.00
49723;BME280;43484;43.608;1.458;2022-09-11T07:21:26;99842.31;;;19.42;100.00
49723;BME280;43484;43.608;1.458;2022-09-11T07:23:56;99835.28;;;19.55;100.00
49723;BME280;43484;43.608;1.458;2022-09-11T07:26:25;99839.63;;;19.57;100.00
49723;BME280;43484;43.608;1.458;2022-09-11T07:28:53;99837.81;;;19.61;100.00
49723;BME280;43484;43.608;1.458;2022-09-11T07:32:21;56282.84;;;-139.91;100.00
49723;BME280;43484;43.608;1.458;2022-09-11T07:35:21;99837.81;;;19.61;100.00
49723;BME280;43484;43.608;1.458;2022-09-11T07:37:47;99833.34;;;19.81;100.00
49723;BME280;43484;43.608;1.458;2022-09-11T07:40:16;99827.25;;;19.86;100.00
49723;BME280;43484;43.608;1.458;2022-09-11T07:42:43;99833.28;;;19.90;100.00
49723;BME280;43484;43.608;1.458;2022-09-11T07:45:10;99830.72;;;19.87;100.00
49723;BME280;43484;43.608;1.458;2022-09-11T07:47:37;99833.25;;;19.94;100.00
49723;BME280;43484;43.608;1.458;2022-09-11T07:50:04;99833.28;;;19.91;100.00
49723;BME280;43484;43.608;1.458;2022-09-11T07:52:31;99825.31;;;20.08;100.00
49723;BME280;43484;43.608;1.458;2022-09-11T07:54:58;99829.63;;;20.17;100.00
49723;BME280;43484;43.608;1.458;2022-09-11T07:57:29;99826.97;;;20.24;100.00
49723;BME280;43484;43.608;1.458;2022-09-11T07:59:55;99822.66;;;20.19;100.00
49723;BME280;43484;43.608;1.458;2022-09-11T08:02:22;99818.22;;;20.28;100.00
49723;BME280;43484;43.608;1.458;2022-09-11T08:04:49;99813.88;;;20.30;100.00
49723;BME280;43484;43.608;1.458;2022-09-11T08:07:16;99813.00;;;20.33;100.00
49723;BME280;43484;43.608;1.458;2022-09-11T08:09:43;99811.19;;;20.39;100.00
49723;BME280;43484;43.608;1.458;2022-09-11T08:12:09;99805.03;;;20.45;100.00
49723;BME280;43484;43.608;1.458;2022-09-11T08:14:37;99796.19;;;20.61;100.00
49723;BME280;43484;43.608;1.458;2022-09-11T08:17:04;99803.13;;;20.62;100.00
49723;BME280;43484;43.608;1.458;2022-09-11T08:19:30;99811.69;;;20.73;100.00
49723;BME280;43484;43.608;1.458;2022-09-11T08:21:58;99808.97;;;20.80;100.00
49723;BME280;43484;43.608;1.458;2022-09-11T08:24:24;99815.88;;;20.84;100.00
49723;BME280;43484;43.608;1.458;2022-09-11T08:26:53;99808.03;;;20.86;100.00
49723;BME280;43484;43.608;1.458;2022-09-11T08:29:19;99815.72;;;20.99;100.00
49723;BME280;43484;43.608;1.458;2022-09-11T08:31:47;99808.69;;;21.06;100.00
49723;BME280;43484;43.608;1.458;2022-09-11T08:34:14;99811.97;;;21.18;100.00
49723;BME280;43484;43.608;1.458;2022-09-11T08:37:39;56282.84;;;-139.91;100.00
49723;BME280;43484;43.608;1.458;2022-09-11T08:44:49;56282.84;;;-139.91;100.00
49723;BME280;43484;43.608;1.458;2022-09-11T08:48:18;56282.84;;;-139.91;100.00
49723;BME280;43484;43.608;1.458;2022-09-11T08:51:48;56282.84;;;-139.91;100.00
49723;BME280;43484;43.608;1.458;2022-09-11T08:56:04;56282.84;;;-139.91;100.00
49723;BME280;43484;43.608;1.458;2022-09-11T09:05:05;99785.00;;;22.27;100.00
49723;BME280;43484;43.608;1.458;2022-09-11T09:10:56;99779.34;;;22.52;100.00
49723;BME280;43484;43.608;1.458;2022-09-11T09:13:59;99776.25;;;22.76;100.00
49723;BME280;43484;43.608;1.458;2022-09-11T09:16:45;99780.41;;;22.84;100.00
49723;BME280;43484;43.608;1.458;2022-09-11T09:19:22;99780.31;;;22.90;100.00
49723;BME280;43484;43.608;1.458;2022-09-11T09:22:00;99783.44;;;23.07;100.00
49723;BME280;43484;43.608;1.458;2022-09-11T09:24:34;99787.72;;;23.10;100.00
49723;BME280;43484;43.608;1.458;2022-09-11T09:27:02;99786.50;;;23.24;100.00
49723;BME280;43484;43.608;1.458;2022-09-11T09:29:34;99789.56;;;23.44;100.00
49723;BME280;43484;43.608;1.458;2022-09-11T09:32:06;99796.25;;;23.58;100.00
49723;BME280;43484;43.608;1.458;2022-09-11T09:34:35;99795.16;;;23.65;100.00
49723;BME280;43484;43.608;1.458;2022-09-11T09:37:15;99790.56;;;23.76;100.00
49723;BME280;43484;43.608;1.458;2022-09-11T09:39:43;99787.78;;;23.82;100.00
49723;BME280;43484;43.608;1.458;2022-09-11T09:47:24;99773.44;;;23.98;100.00
49723;BME280;43484;43.608;1.458;2022-09-11T09:49:57;99780.13;;;24.09;100.00
49723;BME280;43484;43.608;1.458;2022-09-11T09:52:26;99771.09;;;24.21;100.00
49723;BME280;43484;43.608;1.458;2022-09-11T09:55:02;99767.47;;;24.25;99.74
49723;BME280;43484;43.608;1.458;2022-09-11T09:57:31;99764.84;;;24.26;99.86
49723;BME280;43484;43.608;1.458;2022-09-11T10:02:45;99769.94;;;24.31;98.64
49723;BME280;43484;43.608;1.458;2022-09-11T10:07:56;99757.97;;;24.53;97.48
49723;BME280;43484;43.608;1.458;2022-09-11T10:10:33;99763.81;;;24.62;94.95
49723;BME280;43484;43.608;1.458;2022-09-11T10:13:24;99757.59;;;24.65;94.38
49723;BME280;43484;43.608;1.458;2022-09-11T10:15:56;99757.59;;;24.66;95.20
49723;BME280;43484;43.608;1.458;2022-09-11T10:28:48;99737.78;;;24.87;90.99
49723;BME280;43484;43.608;1.458;2022-09-11T10:31:15;99743.69;;;24.94;91.38
49723;BME280;43484;43.608;1.458;2022-09-11T10:33:57;99726.06;;;24.99;90.97
49723;BME280;43484;43.608;1.458;2022-09-11T10:36:28;99721.69;;;24.99;89.13
49723;BME280;43484;43.608;1.458;2022-09-11T10:38:56;99725.63;;;25.12;88.06
49723;BME280;43484;43.608;1.458;2022-09-11T10:41:26;99715.59;;;25.26;87.36
49723;BME280;43484;43.608;1.458;2022-09-11T10:44:33;99706.75;;;25.29;87.22
49723;BME280;43484;43.608;1.458;2022-09-11T10:49:38;99702.16;;;25.37;84.90
49723;BME280;43484;43.608;1.458;2022-09-11T10:57:35;99700.81;;;25.51;84.76
49723;BME280;43484;43.608;1.458;2022-09-11T11:02:39;99688.28;;;25.59;82.58
49723;BME280;43484;43.608;1.458;2022-09-11T11:10:37;99686.16;;;25.95;78.42
49723;BME280;43484;43.608;1.458;2022-09-11T11:21:53;99697.38;;;26.00;76.87
49723;BME280;43484;43.608;1.458;2022-09-11T11:24:45;99692.16;;;25.98;76.04
49723;BME280;43484;43.608;1.458;2022-09-11T11:30:18;99683.66;;;26.17;74.31
49723;BME280;43484;43.608;1.458;2022-09-11T11:40:54;99677.16;;;26.50;71.00
49723;BME280;43484;43.608;1.458;2022-09-11T11:43:31;99682.59;;;26.45;70.29
49723;BME280;43484;43.608;1.458;2022-09-11T11:46:00;99675.28;;;26.53;71.63
49723;BME280;43484;43.608;1.458;2022-09-11T11:48:38;99671.16;;;26.69;68.99
49723;BME280;43484;43.608;1.458;2022-09-11T11:51:15;99672.97;;;26.69;69.26
49723;BME280;43484;43.608;1.458;2022-09-11T11:58:52;99656.72;;;26.81;66.61
49723;BME280;43484;43.608;1.458;2022-09-11T12:04:16;99652.25;;;27.04;62.75
49723;BME280;43484;43.608;1.458;2022-09-11T12:06:47;99638.53;;;27.18;61.43
49723;BME280;43484;43.608;1.458;2022-09-11T12:09:15;99642.22;;;27.14;62.15
49723;BME280;43484;43.608;1.458;2022-09-11T12:11:45;99628.34;;;27.10;61.03
49723;BME280;43484;43.608;1.458;2022-09-11T12:14:39;99629.41;;;27.27;57.46
49723;BME280;43484;43.608;1.458;2022-09-11T12:17:33;99628.75;;;27.22;58.13
49723;BME280;43484;43.608;1.458;2022-09-11T12:22:42;99616.56;;;27.41;59.53
49723;BME280;43484;43.608;1.458;2022-09-11T12:28:22;99613.34;;;27.54;58.82
49723;BME280;43484;43.608;1.458;2022-09-11T12:30:57;99614.41;;;27.70;58.62
49723;BME280;43484;43.608;1.458;2022-09-11T12:36:09;99605.16;;;27.80;55.72
49723;BME280;43484;43.608;1.458;2022-09-11T12:38:45;99603.41;;;27.81;55.02
49723;BME280;43484;43.608;1.458;2022-09-11T12:41:26;99603.00;;;27.90;55.49
49723;BME280;43484;43.608;1.458;2022-09-11T12:43:53;99597.19;;;28.02;54.60
49723;BME280;43484;43.608;1.458;2022-09-11T12:48:55;99588.94;;;27.91;54.63
49723;BME280;43484;43.608;1.458;2022-09-11T12:51:50;99594.25;;;27.89;52.51
49723;BME280;43484;43.608;1.458;2022-09-11T12:54:28;99583.53;;;27.94;51.76
49723;BME280;43484;43.608;1.458;2022-09-11T12:57:19;99576.00;;;28.23;49.72
49723;BME280;43484;43.608;1.458;2022-09-11T12:59:53;99581.63;;;28.16;50.91
49723;BME280;43484;43.608;1.458;2022-09-11T13:02:35;99579.78;;;28.18;50.12
49723;BME280;43484;43.608;1.458;2022-09-11T13:05:17;99573.72;;;28.16;52.20
49723;BME280;43484;43.608;1.458;2022-09-11T13:07:47;99561.28;;;28.19;50.26
49723;BME280;43484;43.608;1.458;2022-09-11T13:12:56;99547.22;;;28.38;48.67
49723;BME280;43484;43.608;1.458;2022-09-11T13:15:37;99555.78;;;28.61;48.24
49723;BME280;43484;43.608;1.458;2022-09-11T13:18:29;99542.84;;;28.74;46.93
49723;BME280;43484;43.608;1.458;2022-09-11T13:23:33;99533.69;;;28.64;47.92
49723;BME280;43484;43.608;1.458;2022-09-11T13:26:00;99535.78;;;28.74;46.72
49723;BME280;43484;43.608;1.458;2022-09-11T13:28:28;99529.47;;;28.78;47.21
49723;BME280;43484;43.608;1.458;2022-09-11T13:31:01;99525.44;;;28.88;45.47
49723;BME280;43484;43.608;1.458;2022-09-11T13:33:30;99523.63;;;29.06;45.96
49723;BME280;43484;43.608;1.458;2022-09-11T13:35:58;99516.91;;;29.00;45.28
49723;BME280;43484;43.608;1.458;2022-09-11T13:38:35;99519.38;;;28.86;45.90
49723;BME280;43484;43.608;1.458;2022-09-11T13:41:05;99510.59;;;28.86;45.19
49723;BME280;43484;43.608;1.458;2022-09-11T13:43:38;99514.34;;;28.82;45.70
49723;BME280;43484;43.608;1.458;2022-09-11T13:46:20;99502.38;;;28.75;45.32
49723;BME280;43484;43.608;1.458;2022-09-11T13:48:49;99495.88;;;28.82;43.93
49723;BME280;43484;43.608;1.458;2022-09-11T13:51:19;99492.47;;;28.80;45.04
49723;BME280;43484;43.608;1.458;2022-09-11T13:53:54;99488.06;;;28.80;45.91
49723;BME280;43484;43.608;1.458;2022-09-11T14:04:48;99476.78;;;28.94;46.74
49723;BME280;43484;43.608;1.458;2022-09-11T14:07:22;99476.16;;;28.89;46.68
49723;BME280;43484;43.608;1.458;2022-09-11T14:10:15;99468.41;;;29.03;45.87
49723;BME280;43484;43.608;1.458;2022-09-11T14:15:41;99466.94;;;29.14;47.56
49723;BME280;43484;43.608;1.458;2022-09-11T14:21:00;99454.88;;;29.10;45.63
49723;BME280;43484;43.608;1.458;2022-09-11T14:23:28;99452.34;;;29.07;45.67
49723;BME280;43484;43.608;1.458;2022-09-11T14:26:43;99454.00;;;29.10;47.23
49723;BME280;43484;43.608;1.458;2022-09-11T14:31:51;99441.63;;;29.27;45.83
49723;BME280;43484;43.608;1.458;2022-09-11T14:34:26;99429.03;;;29.32;45.85
49723;BME280;43484;43.608;1.458;2022-09-11T14:36:57;99430.31;;;29.25;46.38
49723;BME280;43484;43.608;1.458;2022-09-11T14:39:29;99424.44;;;29.36;46.49
49723;BME280;43484;43.608;1.458;2022-09-11T14:41:58;99425.06;;;29.41;45.87
49723;BME280;43484;43.608;1.458;2022-09-11T14:44:26;99422.59;;;29.71;44.38
49723;BME280;43484;43.608;1.458;2022-09-11T14:46:59;99414.78;;;29.52;45.02
49723;BME280;43484;43.608;1.458;2022-09-11T14:49:26;99417.00;;;29.60;45.52
49723;BME280;43484;43.608;1.458;2022-09-11T14:51:55;99420.59;;;29.59;45.69
49723;BME280;43484;43.608;1.458;2022-09-11T14:54:25;99415.78;;;29.49;45.80
49723;BME280;43484;43.608;1.458;2022-09-11T14:56:56;99408.97;;;29.78;44.59
49723;BME280;43484;43.608;1.458;2022-09-11T14:59:26;99419.78;;;29.74;44.95
49723;BME280;43484;43.608;1.458;2022-09-11T15:01:55;99412.63;;;29.76;45.68
49723;BME280;43484;43.608;1.458;2022-09-11T15:04:24;99410.31;;;29.70;46.42
49723;BME280;43484;43.608;1.458;2022-09-11T15:06:52;99404.72;;;29.76;44.95
49723;BME280;43484;43.608;1.458;2022-09-11T15:09:21;99398.16;;;29.67;45.76
49723;BME280;43484;43.608;1.458;2022-09-11T15:11:49;99394.97;;;29.61;46.18
49723;BME280;43484;43.608;1.458;2022-09-11T15:14:20;99394.09;;;29.60;45.21
49723;BME280;43484;43.608;1.458;2022-09-11T15:17:10;99393.28;;;29.75;45.01
49723;BME280;43484;43.608;1.458;2022-09-11T15:19:37;99396.09;;;29.72;44.53
49723;BME280;43484;43.608;1.458;2022-09-11T15:22:05;99389.97;;;29.72;45.00
49723;BME280;43484;43.608;1.458;2022-09-11T15:24:32;99387.66;;;29.81;44.71
49723;BME280;43484;43.608;1.458;2022-09-11T15:26:59;99388.34;;;29.85;44.88
49723;BME280;43484;43.608;1.458;2022-09-11T15:29:26;99384.41;;;29.92;44.73
49723;BME280;43484;43.608;1.458;2022-09-11T15:31:57;99383.38;;;30.10;43.43
49723;BME280;43484;43.608;1.458;2022-09-11T15:34:27;99382.69;;;30.06;43.12
49723;BME280;43484;43.608;1.458;2022-09-11T15:36:58;99396.50;;;30.11;43.09
49723;BME280;43484;43.608;1.458;2022-09-11T15:39:26;99393.25;;;30.22;43.32
49723;BME280;43484;43.608;1.458;2022-09-11T15:41:54;99390.53;;;30.23;43.02
49723;BME280;43484;43.608;1.458;2022-09-11T15:44:23;99382.34;;;30.28;43.26
49723;BME280;43484;43.608;1.458;2022-09-11T15:46:52;99378.00;;;30.27;42.74
49723;BME280;43484;43.608;1.458;2022-09-11T15:49:20;99379.25;;;30.20;42.45
49723;BME280;43484;43.608;1.458;2022-09-11T15:51:48;99387.53;;;30.29;42.38
49723;BME280;43484;43.608;1.458;2022-09-11T15:54:16;99384.47;;;30.37;42.16
49723;BME280;43484;43.608;1.458;2022-09-11T15:56:43;99378.81;;;30.43;41.81